Al Lith, Saudi Arabia
Current Conditions -  °F | °C
As of 9:00 PM on Friday 21 Nov 2014 (Local Time) from OEBA Reporting Station
Scattered Clouds Scattered Clouds  
Wind Chill: 66°   Ceiling: Unl
Heat Index: 66°   Visibility: 6mi
Dew Point: 57°   Wind: 0mph
Humidity: 73%   Direction: NA
Pressure: 30.21"   Gusts: NA
Location:  20.15°N, 40.27°E
Report Text: OEBA 211800Z 00000KT 9999 SCT030 19/14 Q1023 NOSIG
Loading
Personal Weather Stations






























Interactive Weather Map New forecast layout! Learn more

10-Day Weather Forecast

Advertisements
Track Severe Weather on mobile